createdAt,value
2024-03-12T00:04:11.248Z,12.32
2024-03-12T00:09:15.445Z,10.63
2024-03-12T00:14:20.874Z,9.48
2024-03-12T00:19:24.917Z,10.35
2024-03-12T00:24:29.714Z,9.07
2024-03-12T00:29:34.924Z,9.27
2024-03-12T00:34:38.473Z,10.88
2024-03-12T00:39:42.058Z,8.85
2024-03-12T00:44:49.435Z,8.50
2024-03-12T00:49:55.161Z,8.40
2024-03-12T00:55:01.989Z,9.67
2024-03-12T01:00:17.983Z,8.27
2024-03-12T01:05:25.669Z,9.85
2024-03-12T01:15:36.323Z,8.70
2024-03-12T01:20:40.546Z,9.75
2024-03-12T01:25:44.175Z,11.80
2024-03-12T01:30:49.293Z,9.43
2024-03-12T01:36:06.337Z,9.32
2024-03-12T01:41:09.936Z,9.17
2024-03-12T01:46:15.461Z,9.15
2024-03-12T01:51:19.204Z,9.70
2024-03-12T01:56:23.407Z,9.02
2024-03-12T02:01:28.563Z,8.35
2024-03-12T02:06:32.302Z,9.05
2024-03-12T02:11:37.112Z,8.85
2024-03-12T02:16:42.196Z,8.60
2024-03-12T02:21:46.094Z,9.23
2024-03-12T02:26:51.111Z,9.30
2024-03-12T02:31:54.678Z,9.00
2024-03-12T02:36:58.347Z,9.57
2024-03-12T02:42:03.706Z,8.73
2024-03-12T02:47:07.566Z,8.93
2024-03-12T02:52:12.606Z,9.07
2024-03-12T02:57:18.394Z,10.82
2024-03-12T03:02:22.759Z,10.20
2024-03-12T03:07:28.012Z,8.73
2024-03-12T03:12:32.987Z,9.45
2024-03-12T03:17:36.843Z,9.23
2024-03-12T03:22:40.750Z,8.63
2024-03-12T03:27:45.789Z,7.95
2024-03-12T03:32:50.038Z,8.75
2024-03-12T03:37:53.917Z,10.57
2024-03-12T03:42:58.930Z,9.38
2024-03-12T03:48:02.581Z,9.70
2024-03-12T03:53:09.438Z,10.15
2024-03-12T03:58:14.600Z,8.60
2024-03-12T04:03:18.857Z,9.63
2024-03-12T04:08:22.473Z,8.18
2024-03-12T04:13:28.066Z,9.20
2024-03-12T04:18:31.697Z,8.60
2024-03-12T04:23:35.272Z,8.98
2024-03-12T04:28:41.702Z,10.38
2024-03-12T04:33:45.277Z,9.00
2024-03-12T04:38:48.828Z,9.10
2024-03-12T04:43:53.772Z,8.48
2024-03-12T04:48:57.464Z,9.15
2024-03-12T04:54:01.206Z,8.73
2024-03-12T04:59:06.207Z,9.23
2024-03-12T05:04:15.778Z,8.57
2024-03-12T05:09:25.154Z,8.75
2024-03-12T05:14:30.134Z,9.52
2024-03-12T05:19:33.707Z,8.95
2024-03-12T05:24:37.282Z,8.77
2024-03-12T05:29:44.678Z,10.13
2024-03-12T05:34:53.489Z,8.52
2024-03-12T05:40:15.875Z,8.25
2024-03-12T05:45:34.803Z,8.90
2024-03-12T05:50:40.005Z,8.43
2024-03-12T05:55:43.574Z,11.02
2024-03-12T06:00:48.691Z,8.23
2024-03-12T06:05:52.350Z,9.77
2024-03-12T06:10:56.010Z,8.18
2024-03-12T06:16:01.296Z,9.90
2024-03-12T06:21:05.913Z,8.52
2024-03-12T06:26:09.509Z,8.23
2024-03-12T06:31:15.409Z,9.25
2024-03-12T06:36:19.117Z,8.35
2024-03-12T06:41:25.540Z,9.70
2024-03-12T06:46:30.514Z,8.45
2024-03-12T06:51:35.113Z,10.68
2024-03-12T06:56:43.770Z,9.30
2024-03-12T07:01:54.717Z,10.45
2024-03-12T07:06:58.364Z,11.52
2024-03-12T07:12:02.030Z,8.20
2024-03-12T07:17:09.045Z,11.30
2024-03-12T07:22:12.940Z,10.27
2024-03-12T07:27:16.700Z,8.43
2024-03-12T07:32:21.841Z,8.35
2024-03-12T07:37:25.449Z,7.95
2024-03-12T07:42:29.595Z,10.50
2024-03-12T07:47:34.684Z,10.30
2024-03-12T07:52:38.372Z,8.65
2024-03-12T07:57:42.023Z,9.57
2024-03-12T08:02:47.129Z,11.05
2024-03-12T08:07:51.626Z,14.45
2024-03-12T08:12:55.291Z,17.50
2024-03-12T08:18:09.958Z,13.30
2024-03-12T08:23:21.656Z,13.98
2024-03-12T08:28:25.280Z,12.65
2024-03-12T08:33:30.383Z,11.73
2024-03-12T08:38:34.284Z,14.43
2024-03-12T08:43:38.642Z,17.42
2024-03-12T08:48:44.008Z,18.13
2024-03-12T08:53:48.244Z,19.65
2024-03-12T08:58:51.862Z,16.75
2024-03-12T09:03:57.115Z,17.98
2024-03-12T09:09:01.695Z,14.27
2024-03-12T09:14:06.086Z,20.27
2024-03-12T09:19:11.269Z,17.33
2024-03-12T09:24:16.503Z,22.27
2024-03-12T09:29:21.670Z,18.35
2024-03-12T09:34:26.638Z,19.75
2024-03-12T09:39:33.111Z,22.48
2024-03-12T09:44:38.053Z,26.70
2024-03-12T09:49:43.092Z,24.60
2024-03-12T09:54:50.053Z,25.50
2024-03-12T09:59:53.682Z,27.00
2024-03-12T10:04:58.738Z,28.30
2024-03-12T10:10:02.349Z,27.98
2024-03-12T10:15:12.167Z,29.02
2024-03-12T10:20:18.477Z,31.38
2024-03-12T10:25:25.200Z,30.55
2024-03-12T10:30:29.847Z,33.88
2024-03-12T10:35:42.534Z,30.13
2024-03-12T10:40:46.806Z,32.13
2024-03-12T10:45:51.511Z,30.33
2024-03-12T10:50:57.711Z,29.85
2024-03-12T10:56:05.574Z,29.30
2024-03-12T11:01:11.687Z,30.23
2024-03-12T11:06:17.467Z,27.30
2024-03-12T11:11:21.260Z,23.05
2024-03-12T11:16:25.225Z,24.40
2024-03-12T11:21:36.486Z,22.35
2024-03-12T11:26:43.690Z,26.05
2024-03-12T11:31:47.305Z,19.13
2024-03-12T11:36:52.997Z,21.63
2024-03-12T11:42:17.127Z,20.83
2024-03-12T11:47:36.217Z,20.80
2024-03-12T11:52:41.570Z,19.02
2024-03-12T11:57:45.337Z,17.48
2024-03-12T12:02:50.494Z,18.35
2024-03-12T12:07:55.603Z,19.80
2024-03-12T12:12:59.536Z,17.35
2024-03-12T12:18:11.027Z,17.55
2024-03-12T12:23:16.522Z,16.20
2024-03-12T12:28:20.194Z,14.32
2024-03-12T12:33:26.826Z,16.38
2024-03-12T12:38:32.075Z,18.05
2024-03-12T12:43:36.290Z,14.68
2024-03-12T12:48:43.731Z,15.30
2024-03-12T12:53:49.176Z,15.30
2024-03-12T12:58:53.421Z,14.88
2024-03-12T13:03:57.938Z,17.47
2024-03-12T13:09:04.687Z,13.57
2024-03-12T13:14:09.001Z,13.18
2024-03-12T13:19:12.673Z,15.18
2024-03-12T13:24:20.591Z,12.55
2024-03-12T13:29:24.502Z,13.15
2024-03-12T13:34:28.353Z,14.02
2024-03-12T13:39:34.786Z,14.25
2024-03-12T13:44:38.520Z,14.32
2024-03-12T13:49:42.121Z,11.93
2024-03-12T13:54:47.144Z,11.18
2024-03-12T13:59:50.787Z,12.27
2024-03-12T14:04:54.556Z,13.57
2024-03-12T14:10:00.510Z,13.43
2024-03-12T14:15:04.802Z,11.73
2024-03-12T14:20:15.173Z,11.60
2024-03-12T14:25:20.369Z,10.63
2024-03-12T14:30:25.600Z,9.85
2024-03-12T14:35:29.395Z,9.35
2024-03-12T14:40:34.462Z,10.45
2024-03-12T14:45:38.123Z,11.18
2024-03-12T14:50:42.354Z,12.70
2024-03-12T14:55:47.346Z,11.05
2024-03-12T15:00:51.137Z,11.45
2024-03-12T15:05:55.801Z,9.80
2024-03-12T15:11:01.099Z,10.88
2024-03-12T15:16:07.782Z,10.40
2024-03-12T15:21:11.903Z,9.35
2024-03-12T15:26:16.925Z,8.73
2024-03-12T15:31:20.656Z,10.88
2024-03-12T15:36:24.276Z,8.90
2024-03-12T15:41:29.644Z,9.13
2024-03-12T15:46:33.280Z,9.05
2024-03-12T15:51:37.626Z,9.40
2024-03-12T15:56:45.613Z,9.32
2024-03-12T16:01:49.793Z,8.60
2024-03-12T16:06:53.655Z,8.52
2024-03-12T16:11:59.217Z,10.07
2024-03-12T16:17:05.865Z,8.45
2024-03-12T16:22:09.890Z,8.85
2024-03-12T16:27:15.112Z,10.75
2024-03-12T16:32:18.682Z,8.63
2024-03-12T16:37:22.343Z,8.85
2024-03-12T16:42:27.493Z,8.88
2024-03-12T16:47:32.089Z,8.23
2024-03-12T16:52:35.724Z,8.77
2024-03-12T16:57:41.916Z,18.52
2024-03-12T17:02:46.871Z,26.02
2024-03-12T17:07:57.009Z,25.70
2024-03-12T17:13:03.459Z,19.17
2024-03-12T17:18:08.789Z,21.98
2024-03-12T17:23:13.879Z,21.27
2024-03-12T17:28:20.184Z,18.05
2024-03-12T17:33:24.937Z,20.90
2024-03-12T17:38:32.642Z,22.33
2024-03-12T17:48:44.873Z,20.55
2024-03-12T17:53:49.545Z,20.50
2024-03-12T17:58:55.758Z,18.98
2024-03-12T18:04:00.907Z,13.85
2024-03-12T18:09:06.807Z,23.90
2024-03-12T18:14:12.977Z,22.83
2024-03-12T18:19:17.099Z,15.40
2024-03-12T18:24:21.065Z,13.23
2024-03-12T18:29:26.586Z,16.20
2024-03-12T18:34:30.310Z,16.33
2024-03-12T18:39:34.123Z,14.07
2024-03-12T18:44:39.101Z,13.00
2024-03-12T18:49:44.253Z,11.73
2024-03-12T18:54:49.025Z,12.55
2024-03-12T18:59:55.745Z,12.90
2024-03-12T19:05:09.038Z,11.30
2024-03-12T19:10:15.671Z,11.93
2024-03-12T19:15:24.006Z,10.60
2024-03-12T19:20:28.776Z,10.48
2024-03-12T19:25:32.698Z,11.68
2024-03-12T19:30:39.703Z,9.07
2024-03-12T19:35:45.444Z,12.93
2024-03-12T19:40:50.285Z,9.85
2024-03-12T19:45:56.771Z,9.98
2024-03-12T19:51:01.241Z,10.18
2024-03-12T19:56:05.757Z,6.72
2024-03-12T20:01:11.520Z,11.07
2024-03-12T20:06:16.547Z,7.43
2024-03-12T20:11:20.562Z,7.53
2024-03-12T20:16:29.829Z,9.10
2024-03-12T20:21:34.943Z,8.65
2024-03-12T20:26:39.881Z,7.28
2024-03-12T20:31:46.822Z,7.63
2024-03-12T20:36:50.871Z,8.73
2024-03-12T20:41:56.682Z,7.00
2024-03-12T20:47:03.143Z,8.02
2024-03-12T20:52:09.176Z,5.82
2024-03-12T20:57:13.378Z,6.07
2024-03-12T21:02:18.545Z,7.47
2024-03-12T21:07:22.373Z,6.28
2024-03-12T21:12:26.028Z,5.57
2024-03-12T21:17:31.180Z,7.05
2024-03-12T21:22:35.283Z,8.73
2024-03-12T21:27:39.313Z,7.18
2024-03-12T21:32:56.941Z,7.63
2024-03-12T21:43:05.448Z,6.78
2024-03-12T21:48:11.192Z,4.90
2024-03-12T21:53:15.127Z,5.03
2024-03-12T21:58:20.233Z,5.90
2024-03-12T22:03:25.386Z,4.60
2024-03-12T22:08:29.065Z,4.93
2024-03-12T22:13:39.328Z,5.20
2024-03-12T22:18:50.187Z,5.35
2024-03-12T22:23:54.896Z,3.95
2024-03-12T22:28:58.777Z,5.05
2024-03-12T22:34:03.904Z,5.20
2024-03-12T22:39:09.971Z,7.70
2024-03-12T22:44:14.823Z,8.02
2024-03-12T22:49:21.690Z,6.38
2024-03-12T22:54:26.363Z,6.97
2024-03-12T22:59:30.823Z,5.53
2024-03-12T23:04:36.693Z,5.90
2024-03-12T23:09:41.249Z,5.35
2024-03-12T23:14:44.902Z,5.18
2024-03-12T23:19:50.881Z,6.05
2024-03-12T23:24:54.503Z,4.20
2024-03-12T23:30:01.124Z,6.07
2024-03-12T23:35:07.748Z,4.28
2024-03-12T23:40:12.922Z,5.22
2024-03-12T23:45:19.577Z,3.38
2024-03-12T23:50:24.843Z,5.57
2024-03-12T23:55:28.740Z,2.55
